sensor_id;sensor_type;location;lat;lon;timestamp;pressure;altitude;pressure_sealevel;temperature;humidity
80180;BME280;69505;52.134;5.438;2023-12-28T00:01:46;100960.22;;;9.18;100.00
80180;BME280;69505;52.134;5.438;2023-12-28T00:04:12;100954.50;;;9.24;100.00
80180;BME280;69505;52.134;5.438;2023-12-28T00:06:39;100940.94;;;9.29;100.00
80180;BME280;69505;52.134;5.438;2023-12-28T00:09:07;100954.41;;;9.39;100.00
80180;BME280;69505;52.134;5.438;2023-12-28T00:11:38;100965.94;;;9.38;100.00
80180;BME280;69505;52.134;5.438;2023-12-28T00:14:05;100965.19;;;9.35;100.00
80180;BME280;69505;52.134;5.438;2023-12-28T00:16:31;100982.25;;;9.31;100.00
80180;BME280;69505;52.134;5.438;2023-12-28T00:19:04;100975.69;;;9.37;100.00
80180;BME280;69505;52.134;5.438;2023-12-28T00:21:31;100985.47;;;9.37;100.00
80180;BME280;69505;52.134;5.438;2023-12-28T00:23:58;100978.69;;;9.32;100.00
80180;BME280;69505;52.134;5.438;2023-12-28T00:26:24;100996.34;;;9.32;100.00
80180;BME280;69505;52.134;5.438;2023-12-28T00:28:51;100994.16;;;9.39;100.00
80180;BME280;69505;52.134;5.438;2023-12-28T00:31:17;100992.03;;;9.44;100.00
80180;BME280;69505;52.134;5.438;2023-12-28T00:33:44;100995.94;;;9.51;100.00
80180;BME280;69505;52.134;5.438;2023-12-28T00:36:11;100984.06;;;9.44;100.00
80180;BME280;69505;52.134;5.438;2023-12-28T00:38:38;101003.28;;;9.34;100.00
80180;BME280;69505;52.134;5.438;2023-12-28T00:41:04;101001.13;;;9.40;100.00
80180;BME280;69505;52.134;5.438;2023-12-28T00:43:31;101009.19;;;9.38;100.00
80180;BME280;69505;52.134;5.438;2023-12-28T00:45:58;101007.94;;;9.44;100.00
80180;BME280;69505;52.134;5.438;2023-12-28T00:48:24;101001.78;;;9.43;100.00
80180;BME280;69505;52.134;5.438;2023-12-28T00:50:52;101001.38;;;9.37;100.00
80180;BME280;69505;52.134;5.438;2023-12-28T00:53:19;101016.94;;;9.28;100.00
80180;BME280;69505;52.134;5.438;2023-12-28T00:55:46;101010.69;;;9.29;100.00
80180;BME280;69505;52.134;5.438;2023-12-28T00:58:12;101014.06;;;9.31;100.00
80180;BME280;69505;52.134;5.438;2023-12-28T01:00:39;101012.59;;;9.27;100.00
80180;BME280;69505;52.134;5.438;2023-12-28T01:03:06;101006.53;;;9.25;100.00
80180;BME280;69505;52.134;5.438;2023-12-28T01:05:32;101012.50;;;9.29;100.00
80180;BME280;69505;52.134;5.438;2023-12-28T01:07:59;101006.88;;;9.21;100.00
80180;BME280;69505;52.134;5.438;2023-12-28T01:10:26;100998.41;;;9.28;100.00
80180;BME280;69505;52.134;5.438;2023-12-28T01:12:53;101001.78;;;9.18;100.00
80180;BME280;69505;52.134;5.438;2023-12-28T01:15:19;101010.56;;;9.18;100.00
80180;BME280;69505;52.134;5.438;2023-12-28T01:17:47;100998.16;;;9.06;100.00
80180;BME280;69505;52.134;5.438;2023-12-28T01:20:14;101010.44;;;9.07;100.00
80180;BME280;69505;52.134;5.438;2023-12-28T01:22:40;101018.50;;;9.05;100.00
80180;BME280;69505;52.134;5.438;2023-12-28T01:25:07;101012.13;;;8.95;100.00
80180;BME280;69505;52.134;5.438;2023-12-28T01:27:34;101022.75;;;9.08;100.00
80180;BME280;69505;52.134;5.438;2023-12-28T01:30:01;101019.53;;;9.03;100.00
80180;BME280;69505;52.134;5.438;2023-12-28T01:32:28;101034.81;;;8.99;100.00
80180;BME280;69505;52.134;5.438;2023-12-28T01:34:54;101037.34;;;9.01;100.00
80180;BME280;69505;52.134;5.438;2023-12-28T01:37:21;101030.59;;;8.97;100.00
80180;BME280;69505;52.134;5.438;2023-12-28T01:39:48;101030.13;;;8.90;100.00
80180;BME280;69505;52.134;5.438;2023-12-28T01:42:14;101026.28;;;8.81;100.00
80180;BME280;69505;52.134;5.438;2023-12-28T01:44:41;101026.28;;;8.81;100.00
80180;BME280;69505;52.134;5.438;2023-12-28T01:47:08;101035.59;;;8.74;100.00
80180;BME280;69505;52.134;5.438;2023-12-28T01:49:35;101025.34;;;8.82;100.00
80180;BME280;69505;52.134;5.438;2023-12-28T01:52:04;101026.28;;;8.81;100.00
80180;BME280;69505;52.134;5.438;2023-12-28T01:54:31;101027.13;;;8.82;100.00
80180;BME280;69505;52.134;5.438;2023-12-28T01:57:00;101022.91;;;8.79;100.00
80180;BME280;69505;52.134;5.438;2023-12-28T01:59:27;101042.19;;;8.81;100.00
80180;BME280;69505;52.134;5.438;2023-12-28T02:01:54;101037.28;;;8.75;100.00
80180;BME280;69505;52.134;5.438;2023-12-28T02:04:21;101038.69;;;8.81;100.00
80180;BME280;69505;52.134;5.438;2023-12-28T02:06:59;101030.50;;;8.71;100.00
80180;BME280;69505;52.134;5.438;2023-12-28T02:09:26;101043.00;;;8.69;100.00
80180;BME280;69505;52.134;5.438;2023-12-28T02:11:54;101027.75;;;8.72;100.00
80180;BME280;69505;52.134;5.438;2023-12-28T02:14:21;101023.72;;;8.67;100.00
80180;BME280;69505;52.134;5.438;2023-12-28T02:17:03;101026.81;;;8.73;100.00
80180;BME280;69505;52.134;5.438;2023-12-28T02:19:41;101038.88;;;8.78;100.00
80180;BME280;69505;52.134;5.438;2023-12-28T02:22:13;101025.94;;;8.73;100.00
80180;BME280;69505;52.134;5.438;2023-12-28T02:25:10;101031.59;;;8.81;100.00
80180;BME280;69505;52.134;5.438;2023-12-28T02:27:42;101023.97;;;8.77;100.00
80180;BME280;69505;52.134;5.438;2023-12-28T02:30:14;101019.50;;;8.77;100.00
80180;BME280;69505;52.134;5.438;2023-12-28T02:33:23;101013.38;;;8.77;100.00
80180;BME280;69505;52.134;5.438;2023-12-28T02:36:02;101016.09;;;8.75;100.00
80180;BME280;69505;52.134;5.438;2023-12-28T02:38:32;101020.56;;;8.74;100.00
80180;BME280;69505;52.134;5.438;2023-12-28T02:41:03;101014.03;;;8.93;100.00
80180;BME280;69505;52.134;5.438;2023-12-28T02:43:30;101014.78;;;8.95;100.00
80180;BME280;69505;52.134;5.438;2023-12-28T02:45:56;101009.91;;;9.02;100.00
80180;BME280;69505;52.134;5.438;2023-12-28T02:48:23;100988.72;;;9.02;100.00
80180;BME280;69505;52.134;5.438;2023-12-28T02:50:50;100999.31;;;9.02;100.00
80180;BME280;69505;52.134;5.438;2023-12-28T02:53:17;100999.41;;;9.00;100.00
80180;BME280;69505;52.134;5.438;2023-12-28T02:55:43;100988.72;;;9.14;100.00
80180;BME280;69505;52.134;5.438;2023-12-28T02:58:10;100986.19;;;9.13;100.00
80180;BME280;69505;52.134;5.438;2023-12-28T03:00:37;100977.47;;;9.11;100.00
80180;BME280;69505;52.134;5.438;2023-12-28T03:03:04;100993.94;;;9.16;100.00
80180;BME280;69505;52.134;5.438;2023-12-28T03:05:30;100985.56;;;9.22;100.00
80180;BME280;69505;52.134;5.438;2023-12-28T03:07:57;100992.13;;;9.17;100.00
80180;BME280;69505;52.134;5.438;2023-12-28T03:10:25;100992.53;;;9.10;100.00
80180;BME280;69505;52.134;5.438;2023-12-28T03:12:51;100994.34;;;9.23;100.00
80180;BME280;69505;52.134;5.438;2023-12-28T03:15:18;100994.56;;;9.32;100.00
80180;BME280;69505;52.134;5.438;2023-12-28T03:17:45;100999.66;;;9.23;100.00
80180;BME280;69505;52.134;5.438;2023-12-28T03:20:11;100997.22;;;9.32;100.00
80180;BME280;69505;52.134;5.438;2023-12-28T03:22:38;101000.41;;;9.38;100.00
80180;BME280;69505;52.134;5.438;2023-12-28T03:25:05;100994.88;;;9.41;100.00
80180;BME280;69505;52.134;5.438;2023-12-28T03:27:32;100994.16;;;9.39;100.00
80180;BME280;69505;52.134;5.438;2023-12-28T03:29:59;100998.56;;;9.51;100.00
80180;BME280;69505;52.134;5.438;2023-12-28T03:32:25;100994.16;;;9.51;100.00
80180;BME280;69505;52.134;5.438;2023-12-28T03:34:52;100993.69;;;9.45;100.00
80180;BME280;69505;52.134;5.438;2023-12-28T03:37:19;100979.81;;;9.54;100.00
80180;BME280;69505;52.134;5.438;2023-12-28T03:39:45;100988.41;;;9.58;100.00
80180;BME280;69505;52.134;5.438;2023-12-28T03:42:13;100978.75;;;9.57;100.00
80180;BME280;69505;52.134;5.438;2023-12-28T03:44:40;100985.03;;;9.55;100.00
80180;BME280;69505;52.134;5.438;2023-12-28T03:47:07;100978.22;;;9.51;100.00
80180;BME280;69505;52.134;5.438;2023-12-28T03:49:33;100988.50;;;9.56;100.00
80180;BME280;69505;52.134;5.438;2023-12-28T03:52:00;100978.97;;;9.53;100.00
80180;BME280;69505;52.134;5.438;2023-12-28T03:54:27;100975.75;;;9.61;100.00
80180;BME280;69505;52.134;5.438;2023-12-28T03:56:54;100973.53;;;9.55;100.00
80180;BME280;69505;52.134;5.438;2023-12-28T03:59:20;100983.41;;;9.53;100.00
80180;BME280;69505;52.134;5.438;2023-12-28T04:01:48;100974.84;;;9.37;100.00
80180;BME280;69505;52.134;5.438;2023-12-28T04:04:15;100980.34;;;9.33;100.00
80180;BME280;69505;52.134;5.438;2023-12-28T04:06:42;100974.84;;;9.37;100.00
80180;BME280;69505;52.134;5.438;2023-12-28T04:09:13;100988.22;;;9.35;100.00
80180;BME280;69505;52.134;5.438;2023-12-28T04:11:40;100972.81;;;9.40;100.00
80180;BME280;69505;52.134;5.438;2023-12-28T04:14:08;100971.34;;;9.36;100.00
80180;BME280;69505;52.134;5.438;2023-12-28T04:16:35;100981.84;;;9.38;100.00
80180;BME280;69505;52.134;5.438;2023-12-28T04:19:02;100992.66;;;9.34;100.00
80180;BME280;69505;52.134;5.438;2023-12-28T04:21:29;100985.88;;;9.30;100.00
80180;BME280;69505;52.134;5.438;2023-12-28T04:23:55;100998.59;;;9.38;100.00
80180;BME280;69505;52.134;5.438;2023-12-28T04:26:22;100985.22;;;9.40;100.00
80180;BME280;69505;52.134;5.438;2023-12-28T04:28:48;100988.94;;;9.50;100.00
80180;BME280;69505;52.134;5.438;2023-12-28T04:31:15;100996.81;;;9.39;100.00
80180;BME280;69505;52.134;5.438;2023-12-28T04:33:42;100983.00;;;9.33;100.00
80180;BME280;69505;52.134;5.438;2023-12-28T04:36:08;100986.31;;;9.24;100.00
80180;BME280;69505;52.134;5.438;2023-12-28T04:38:36;100990.03;;;9.34;100.00
80180;BME280;69505;52.134;5.438;2023-12-28T04:41:03;100990.31;;;9.43;100.00
80180;BME280;69505;52.134;5.438;2023-12-28T04:43:30;100987.88;;;9.52;100.00
80180;BME280;69505;52.134;5.438;2023-12-28T04:45:56;100976.53;;;9.50;100.00
80180;BME280;69505;52.134;5.438;2023-12-28T04:48:23;100985.31;;;9.51;100.00
80180;BME280;69505;52.134;5.438;2023-12-28T04:50:52;100992.22;;;9.53;100.00
80180;BME280;69505;52.134;5.438;2023-12-28T04:53:19;100999.22;;;9.54;100.00
80180;BME280;69505;52.134;5.438;2023-12-28T04:55:46;100987.44;;;9.59;99.66
80180;BME280;69505;52.134;5.438;2023-12-28T04:58:12;100985.03;;;9.55;99.79
80180;BME280;69505;52.134;5.438;2023-12-28T05:00:40;100989.00;;;9.74;97.98
80180;BME280;69505;52.134;5.438;2023-12-28T05:03:07;100986.47;;;9.72;98.04
80180;BME280;69505;52.134;5.438;2023-12-28T05:05:33;100986.47;;;9.72;98.24
80180;BME280;69505;52.134;5.438;2023-12-28T05:08:00;100983.28;;;9.67;97.92
80180;BME280;69505;52.134;5.438;2023-12-28T05:10:27;100991.16;;;9.69;97.72
80180;BME280;69505;52.134;5.438;2023-12-28T05:12:54;100980.19;;;9.73;97.38
80180;BME280;69505;52.134;5.438;2023-12-28T05:15:27;100977.13;;;9.80;96.34
80180;BME280;69505;52.134;5.438;2023-12-28T05:17:54;100986.88;;;9.79;95.90
80180;BME280;69505;52.134;5.438;2023-12-28T05:20:21;101012.09;;;9.85;95.92
80180;BME280;69505;52.134;5.438;2023-12-28T05:22:48;101003.72;;;9.91;95.41
80180;BME280;69505;52.134;5.438;2023-12-28T05:25:15;101009.25;;;9.88;96.22
80180;BME280;69505;52.134;5.438;2023-12-28T05:27:41;101002.97;;;9.89;94.62
80180;BME280;69505;52.134;5.438;2023-12-28T05:30:09;100998.94;;;9.96;95.06
80180;BME280;69505;52.134;5.438;2023-12-28T05:32:38;100997.97;;;9.97;94.48
80180;BME280;69505;52.134;5.438;2023-12-28T05:35:05;101000.84;;;9.94;94.69
80180;BME280;69505;52.134;5.438;2023-12-28T05:37:32;101006.91;;;9.96;94.48
80180;BME280;69505;52.134;5.438;2023-12-28T05:39:58;101008.38;;;10.00;94.05
80180;BME280;69505;52.134;5.438;2023-12-28T05:42:25;101004.25;;;9.96;94.16
80180;BME280;69505;52.134;5.438;2023-12-28T05:44:51;101007.09;;;9.93;94.34
80180;BME280;69505;52.134;5.438;2023-12-28T05:47:18;100990.44;;;10.04;93.43
80180;BME280;69505;52.134;5.438;2023-12-28T05:49:45;100990.31;;;10.05;93.92
80180;BME280;69505;52.134;5.438;2023-12-28T05:52:11;101010.34;;;10.09;93.45
80180;BME280;69505;52.134;5.438;2023-12-28T05:54:41;101004.53;;;10.04;93.20
80180;BME280;69505;52.134;5.438;2023-12-28T05:57:10;100995.09;;;10.00;93.67
80180;BME280;69505;52.134;5.438;2023-12-28T05:59:38;101002.72;;;10.05;93.06
80180;BME280;69505;52.134;5.438;2023-12-28T06:02:06;101009.13;;;10.02;93.03
80180;BME280;69505;52.134;5.438;2023-12-28T06:04:32;100990.94;;;10.09;93.77
80180;BME280;69505;52.134;5.438;2023-12-28T06:07:02;101013.34;;;10.05;93.31
80180;BME280;69505;52.134;5.438;2023-12-28T06:09:28;101012.91;;;10.11;93.34
80180;BME280;69505;52.134;5.438;2023-12-28T06:11:55;101024.59;;;10.08;93.29
80180;BME280;69505;52.134;5.438;2023-12-28T06:14:22;101021.22;;;10.06;93.41
80180;BME280;69505;52.134;5.438;2023-12-28T06:16:48;101007.81;;;10.08;92.65
80180;BME280;69505;52.134;5.438;2023-12-28T06:19:15;101018.41;;;10.08;92.33
80180;BME280;69505;52.134;5.438;2023-12-28T06:21:42;101014.47;;;10.13;92.73
80180;BME280;69505;52.134;5.438;2023-12-28T06:24:09;101020.13;;;10.09;92.42
80180;BME280;69505;52.134;5.438;2023-12-28T06:26:41;101006.97;;;10.07;93.69
80180;BME280;69505;52.134;5.438;2023-12-28T06:29:09;101018.66;;;10.05;93.81
80180;BME280;69505;52.134;5.438;2023-12-28T06:31:36;101023.97;;;10.05;93.47
80180;BME280;69505;52.134;5.438;2023-12-28T06:34:04;101040.09;;;10.14;93.00
80180;BME280;69505;52.134;5.438;2023-12-28T06:36:31;101046.88;;;10.19;91.12
80180;BME280;69505;52.134;5.438;2023-12-28T06:38:58;101032.72;;;10.18;91.49
80180;BME280;69505;52.134;5.438;2023-12-28T06:41:26;101045.16;;;10.18;92.58
80180;BME280;69505;52.134;5.438;2023-12-28T06:43:52;101043.69;;;10.13;92.47
80180;BME280;69505;52.134;5.438;2023-12-28T06:46:19;101051.13;;;10.08;92.96
80180;BME280;69505;52.134;5.438;2023-12-28T06:48:47;101045.81;;;10.08;92.04
80180;BME280;69505;52.134;5.438;2023-12-28T06:51:18;101066.50;;;10.16;92.59
80180;BME280;69505;52.134;5.438;2023-12-28T06:53:46;101049.38;;;10.20;91.24
80180;BME280;69505;52.134;5.438;2023-12-28T06:56:12;101035.50;;;10.16;92.13
80180;BME280;69505;52.134;5.438;2023-12-28T06:58:39;101058.66;;;10.14;91.55
80180;BME280;69505;52.134;5.438;2023-12-28T07:01:06;101047.72;;;10.19;90.87
80180;BME280;69505;52.134;5.438;2023-12-28T07:03:33;101057.25;;;10.22;91.32
80180;BME280;69505;52.134;5.438;2023-12-28T07:06:00;101052.19;;;10.19;92.17
80180;BME280;69505;52.134;5.438;2023-12-28T07:08:27;101041.25;;;10.10;91.66
80180;BME280;69505;52.134;5.438;2023-12-28T07:10:53;101052.63;;;10.12;92.19
80180;BME280;69505;52.134;5.438;2023-12-28T07:13:20;101059.44;;;10.04;93.60
80180;BME280;69505;52.134;5.438;2023-12-28T07:15:46;101052.91;;;10.08;92.51
80180;BME280;69505;52.134;5.438;2023-12-28T07:18:13;101064.00;;;9.89;94.15
80180;BME280;69505;52.134;5.438;2023-12-28T07:20:40;101081.00;;;9.73;94.55
80180;BME280;69505;52.134;5.438;2023-12-28T07:23:07;101070.47;;;9.85;93.43
80180;BME280;69505;52.134;5.438;2023-12-28T07:25:35;101088.31;;;9.83;93.46
80180;BME280;69505;52.134;5.438;2023-12-28T07:28:02;101080.25;;;9.84;93.95
80180;BME280;69505;52.134;5.438;2023-12-28T07:30:29;101075.91;;;9.83;93.88
80180;BME280;69505;52.134;5.438;2023-12-28T07:32:56;101087.78;;;9.78;93.38
80180;BME280;69505;52.134;5.438;2023-12-28T07:35:23;101099.47;;;9.75;94.30
80180;BME280;69505;52.134;5.438;2023-12-28T07:37:50;101079.81;;;9.78;93.90
80180;BME280;69505;52.134;5.438;2023-12-28T07:40:16;101092.16;;;9.79;93.02
80180;BME280;69505;52.134;5.438;2023-12-28T07:42:43;101094.66;;;9.80;94.19
80180;BME280;69505;52.134;5.438;2023-12-28T07:45:09;101098.28;;;9.79;93.79
80180;BME280;69505;52.134;5.438;2023-12-28T07:47:36;101097.56;;;9.77;93.77
80180;BME280;69505;52.134;5.438;2023-12-28T07:50:03;101101.38;;;9.73;93.98
80180;BME280;69505;52.134;5.438;2023-12-28T07:52:30;101100.94;;;9.79;93.48
80180;BME280;69505;52.134;5.438;2023-12-28T07:54:56;101130.78;;;9.83;93.69
80180;BME280;69505;52.134;5.438;2023-12-28T07:57:23;101119.09;;;9.98;92.46
80180;BME280;69505;52.134;5.438;2023-12-28T07:59:50;101114.94;;;9.94;93.54
80180;BME280;69505;52.134;5.438;2023-12-28T08:02:17;101112.50;;;9.91;93.26
80180;BME280;69505;52.134;5.438;2023-12-28T08:04:46;101116.44;;;9.98;92.90
80180;BME280;69505;52.134;5.438;2023-12-28T08:07:13;101113.88;;;9.96;93.50
80180;BME280;69505;52.134;5.438;2023-12-28T08:09:40;101121.19;;;9.93;93.10
80180;BME280;69505;52.134;5.438;2023-12-28T08:12:07;101116.13;;;9.90;94.09
80180;BME280;69505;52.134;5.438;2023-12-28T08:14:33;101109.09;;;9.89;93.78
80180;BME280;69505;52.134;5.438;2023-12-28T08:17:00;101099.56;;;9.86;94.44
80180;BME280;69505;52.134;5.438;2023-12-28T08:19:27;101098.47;;;9.89;93.84
80180;BME280;69505;52.134;5.438;2023-12-28T08:21:53;101103.16;;;9.98;93.77
80180;BME280;69505;52.134;5.438;2023-12-28T08:24:21;101120.75;;;9.99;92.76
80180;BME280;69505;52.134;5.438;2023-12-28T08:26:47;101095.41;;;9.95;93.25
80180;BME280;69505;52.134;5.438;2023-12-28T08:29:14;101121.41;;;10.03;92.87
80180;BME280;69505;52.134;5.438;2023-12-28T08:31:40;101096.25;;;10.08;92.84
80180;BME280;69505;52.134;5.438;2023-12-28T08:34:12;101122.78;;;10.08;93.41
80180;BME280;69505;52.134;5.438;2023-12-28T08:36:39;101111.44;;;10.06;93.28
80180;BME280;69505;52.134;5.438;2023-12-28T08:39:05;101107.81;;;10.07;92.47
80180;BME280;69505;52.134;5.438;2023-12-28T08:41:32;101127.13;;;10.09;93.23
80180;BME280;69505;52.134;5.438;2023-12-28T08:43:58;101093.59;;;10.08;92.89
80180;BME280;69505;52.134;5.438;2023-12-28T08:46:25;101102.72;;;10.17;92.67
80180;BME280;69505;52.134;5.438;2023-12-28T08:48:52;101126.06;;;10.12;92.87
80180;BME280;69505;52.134;5.438;2023-12-28T08:51:19;101143.69;;;10.13;92.55
80180;BME280;69505;52.134;5.438;2023-12-28T08:53:47;101132.09;;;10.14;93.31
80180;BME280;69505;52.134;5.438;2023-12-28T08:56:16;101130.09;;;10.18;92.03
80180;BME280;69505;52.134;5.438;2023-12-28T08:58:44;101142.53;;;10.17;91.75
80180;BME280;69505;52.134;5.438;2023-12-28T09:01:16;101151.88;;;10.23;91.63
80180;BME280;69505;52.134;5.438;2023-12-28T09:03:43;101149.09;;;10.24;91.58
80180;BME280;69505;52.134;5.438;2023-12-28T09:06:10;101162.25;;;10.26;91.55
80180;BME280;69505;52.134;5.438;2023-12-28T09:08:36;101154.28;;;10.26;91.52
80180;BME280;69505;52.134;5.438;2023-12-28T09:11:03;101151.97;;;10.21;92.32
80180;BME280;69505;52.134;5.438;2023-12-28T09:13:30;101143.16;;;10.21;91.65
80180;BME280;69505;52.134;5.438;2023-12-28T09:15:57;101156.22;;;10.24;93.03
80180;BME280;69505;52.134;5.438;2023-12-28T09:18:24;101145.38;;;10.27;91.20
80180;BME280;69505;52.134;5.438;2023-12-28T09:20:51;101142.59;;;10.28;90.46
80180;BME280;69505;52.134;5.438;2023-12-28T09:23:17;101143.56;;;10.27;91.81
80180;BME280;69505;52.134;5.438;2023-12-28T09:25:44;101157.28;;;10.21;92.50
80180;BME280;69505;52.134;5.438;2023-12-28T09:28:11;101160.78;;;10.22;92.81
80180;BME280;69505;52.134;5.438;2023-12-28T09:30:37;101159.59;;;10.26;91.74
80180;BME280;69505;52.134;5.438;2023-12-28T09:33:04;101168.31;;;10.28;91.90
80180;BME280;69505;52.134;5.438;2023-12-28T09:35:31;101158.53;;;10.28;91.92
80180;BME280;69505;52.134;5.438;2023-12-28T09:37:57;101173.41;;;10.31;92.77
80180;BME280;69505;52.134;5.438;2023-12-28T09:40:24;101164.09;;;10.38;91.32
80180;BME280;69505;52.134;5.438;2023-12-28T09:42:59;101170.44;;;10.48;90.21
80180;BME280;69505;52.134;5.438;2023-12-28T09:45:28;101177.84;;;10.56;89.53
80180;BME280;69505;52.134;5.438;2023-12-28T09:47:55;101167.84;;;10.60;89.10
80180;BME280;69505;52.134;5.438;2023-12-28T09:50:22;101187.19;;;10.62;88.93
80180;BME280;69505;52.134;5.438;2023-12-28T09:52:50;101179.84;;;10.65;88.74
80180;BME280;69505;52.134;5.438;2023-12-28T09:55:16;101193.03;;;10.67;88.64
80180;BME280;69505;52.134;5.438;2023-12-28T09:57:44;101182.63;;;10.64;88.68
80180;BME280;69505;52.134;5.438;2023-12-28T10:00:12;101187.81;;;10.65;87.93
80180;BME280;69505;52.134;5.438;2023-12-28T10:02:40;101179.63;;;10.68;88.90
80180;BME280;69505;52.134;5.438;2023-12-28T10:05:12;101174.94;;;10.72;88.34
80180;BME280;69505;52.134;5.438;2023-12-28T10:07:42;101203.66;;;10.67;88.69
80180;BME280;69505;52.134;5.438;2023-12-28T10:10:12;101183.16;;;10.69;87.79
80180;BME280;69505;52.134;5.438;2023-12-28T10:12:38;101198.63;;;10.75;88.54
80180;BME280;69505;52.134;5.438;2023-12-28T10:15:06;101195.47;;;10.70;88.34
80180;BME280;69505;52.134;5.438;2023-12-28T10:17:33;101208.00;;;10.68;87.81
80180;BME280;69505;52.134;5.438;2023-12-28T10:20:03;101198.03;;;10.59;89.77
80180;BME280;69505;52.134;5.438;2023-12-28T10:22:31;101194.13;;;10.51;90.22
80180;BME280;69505;52.134;5.438;2023-12-28T10:24:59;101188.59;;;10.54;90.29
80180;BME280;69505;52.134;5.438;2023-12-28T10:27:26;101205.03;;;10.60;88.24
80180;BME280;69505;52.134;5.438;2023-12-28T10:29:55;101205.69;;;10.63;87.53
80180;BME280;69505;52.134;5.438;2023-12-28T10:32:23;101203.88;;;10.64;87.34
80180;BME280;69505;52.134;5.438;2023-12-28T10:34:52;101194.22;;;10.63;88.62
80180;BME280;69505;52.134;5.438;2023-12-28T10:37:23;101183.59;;;10.63;89.59
80180;BME280;69505;52.134;5.438;2023-12-28T10:39:54;101196.00;;;10.62;88.94
80180;BME280;69505;52.134;5.438;2023-12-28T10:42:28;101184.34;;;10.65;88.36
80180;BME280;69505;52.134;5.438;2023-12-28T10:45:04;101190.16;;;10.70;87.57
80180;BME280;69505;52.134;5.438;2023-12-28T10:47:32;101199.50;;;10.75;88.45
80180;BME280;69505;52.134;5.438;2023-12-28T10:50:04;101206.38;;;10.78;87.92
80180;BME280;69505;52.134;5.438;2023-12-28T10:52:34;101182.13;;;10.83;88.03
80180;BME280;69505;52.134;5.438;2023-12-28T10:55:15;101182.25;;;10.81;87.71
80180;BME280;69505;52.134;5.438;2023-12-28T10:58:01;101179.72;;;10.80;86.66
80180;BME280;69505;52.134;5.438;2023-12-28T11:00:36;101200.84;;;10.81;86.88
80180;BME280;69505;52.134;5.438;2023-12-28T11:03:09;101200.97;;;10.80;86.94
80180;BME280;69505;52.134;5.438;2023-12-28T11:05:40;101192.03;;;10.81;87.08
80180;BME280;69505;52.134;5.438;2023-12-28T11:08:08;101201.81;;;10.80;87.37
80180;BME280;69505;52.134;5.438;2023-12-28T11:10:36;101189.72;;;10.76;87.40
80180;BME280;69505;52.134;5.438;2023-12-28T11:13:03;101181.00;;;10.74;87.31
80180;BME280;69505;52.134;5.438;2023-12-28T11:15:32;101183.66;;;10.74;87.24
80180;BME280;69505;52.134;5.438;2023-12-28T11:17:59;101184.72;;;10.71;87.02
80180;BME280;69505;52.134;5.438;2023-12-28T11:20:26;101176.75;;;10.71;86.23
80180;BME280;69505;52.134;5.438;2023-12-28T11:22:55;101179.41;;;10.71;87.19
80180;BME280;69505;52.134;5.438;2023-12-28T11:25:23;101161.44;;;10.75;86.90
80180;BME280;69505;52.134;5.438;2023-12-28T11:27:50;101218.19;;;10.74;86.63
80180;BME280;69505;52.134;5.438;2023-12-28T11:30:16;101174.59;;;10.76;85.85
80180;BME280;69505;52.134;5.438;2023-12-28T11:32:44;101178.84;;;10.79;86.93
80180;BME280;69505;52.134;5.438;2023-12-28T11:35:12;101161.97;;;10.80;85.55
80180;BME280;69505;52.134;5.438;2023-12-28T11:37:42;101161.72;;;10.83;85.99
80180;BME280;69505;52.134;5.438;2023-12-28T11:40:12;101153.75;;;10.83;85.76
80180;BME280;69505;52.134;5.438;2023-12-28T11:42:53;101172.47;;;10.82;87.22
80180;BME280;69505;52.134;5.438;2023-12-28T11:45:22;101165.47;;;10.81;86.06
80180;BME280;69505;52.134;5.438;2023-12-28T11:48:02;101180.31;;;10.83;85.71
80180;BME280;69505;52.134;5.438;2023-12-28T11:50:30;101170.56;;;10.84;86.45
80180;BME280;69505;52.134;5.438;2023-12-28T11:52:56;101174.81;;;10.86;86.04
80180;BME280;69505;52.134;5.438;2023-12-28T11:55:23;101174.06;;;10.84;85.81
80180;BME280;69505;52.134;5.438;2023-12-28T11:57:50;101166.28;;;10.81;86.47
80180;BME280;69505;52.134;5.438;2023-12-28T12:00:17;101180.44;;;10.82;86.10
80180;BME280;69505;52.134;5.438;2023-12-28T12:02:44;101167.78;;;10.85;86.26
80180;BME280;69505;52.134;5.438;2023-12-28T12:05:14;101171.41;;;10.84;85.64
80180;BME280;69505;52.134;5.438;2023-12-28T12:07:41;101175.63;;;10.87;85.79
80180;BME280;69505;52.134;5.438;2023-12-28T12:10:13;101163.34;;;10.86;86.05
80180;BME280;69505;52.134;5.438;2023-12-28T12:12:40;101171.16;;;10.87;85.62
80180;BME280;69505;52.134;5.438;2023-12-28T12:15:09;101156.09;;;10.88;86.83
80180;BME280;69505;52.134;5.438;2023-12-28T12:17:36;101163.94;;;10.89;86.62
80180;BME280;69505;52.134;5.438;2023-12-28T12:20:02;101155.00;;;10.90;86.40
80180;BME280;69505;52.134;5.438;2023-12-28T12:22:32;101147.78;;;10.92;85.82
80180;BME280;69505;52.134;5.438;2023-12-28T12:25:02;101153.94;;;10.93;86.86
80180;BME280;69505;52.134;5.438;2023-12-28T12:27:33;101148.00;;;10.89;86.16
80180;BME280;69505;52.134;5.438;2023-12-28T12:29:59;101164.56;;;10.93;85.57
80180;BME280;69505;52.134;5.438;2023-12-28T12:32:26;101143.06;;;10.96;85.44
80180;BME280;69505;52.134;5.438;2023-12-28T12:34:54;101146.69;;;10.95;85.87
80180;BME280;69505;52.134;5.438;2023-12-28T12:37:21;101136.16;;;10.93;85.71
80180;BME280;69505;52.134;5.438;2023-12-28T12:39:48;101154.78;;;10.93;85.30
80180;BME280;69505;52.134;5.438;2023-12-28T12:42:15;101144.97;;;10.94;85.75
80180;BME280;69505;52.134;5.438;2023-12-28T12:44:46;101149.69;;;10.90;85.17
80180;BME280;69505;52.134;5.438;2023-12-28T12:47:13;101147.63;;;10.94;85.52
80180;BME280;69505;52.134;5.438;2023-12-28T12:49:40;101145.84;;;10.94;86.09
80180;BME280;69505;52.134;5.438;2023-12-28T12:52:09;101145.13;;;10.92;85.92
80180;BME280;69505;52.134;5.438;2023-12-28T12:54:36;101155.00;;;10.90;86.31
80180;BME280;69505;52.134;5.438;2023-12-28T12:57:04;101142.66;;;10.89;85.58